Time;durP1;ratioP1;P1;durP2;ratioP2;P2;SDS_P1;SDS_P2;PMS_P1;PMS_P2;Temp;Humidity;BMP_temperature;BMP_pressure;BME280_temperature;BME280_humidity;BME280_pressure;Samples;Min_cycle;Max_cycle;Signal;HPM_P1;HPM_P2
2021/04/04 00:01:21;;;;;;;1999.90;999.90;;;8.20;56.60;;;;;;5064344;28;20376;-72
2021/04/04 00:03:49;;;;;;;1999.90;999.90;;;8.20;56.70;;;;;;5067868;28;20635;-72
2021/04/04 00:06:15;;;;;;;1999.90;999.90;;;8.20;56.70;;;;;;5068628;28;20044;-71
2021/04/04 00:08:42;;;;;;;1999.90;999.90;;;8.20;56.80;;;;;;5065642;28;20041;-71
2021/04/04 00:11:09;;;;;;;1999.90;999.90;;;8.20;57.00;;;;;;5067892;28;20044;-72
2021/04/04 00:13:36;;;;;;;1999.90;999.90;;;8.20;56.80;;;;;;5065885;28;20507;-71
2021/04/04 00:16:03;;;;;;;1999.90;999.90;;;8.20;56.80;;;;;;5064234;28;20060;-72
2021/04/04 00:18:29;;;;;;;1999.90;999.90;;;8.20;57.00;;;;;;5064337;28;20447;-72
2021/04/04 00:20:56;;;;;;;1999.90;999.90;;;8.20;57.00;;;;;;5067197;28;20044;-71
2021/04/04 00:23:23;;;;;;;1999.90;999.90;;;8.20;57.00;;;;;;5062526;28;20147;-72
2021/04/04 00:25:49;;;;;;;1999.90;999.90;;;8.20;57.00;;;;;;5065606;28;20048;-72
2021/04/04 00:28:15;;;;;;;1999.90;999.90;;;8.20;57.10;;;;;;5060432;28;20051;-72
2021/04/04 00:30:41;;;;;;;1999.90;999.90;;;8.20;57.10;;;;;;5065737;28;20539;-72
2021/04/04 00:33:08;;;;;;;1999.90;999.90;;;8.20;57.20;;;;;;5065967;28;20055;-72
2021/04/04 00:35:34;;;;;;;1999.90;999.90;;;8.20;57.20;;;;;;5066307;28;20040;-73
2021/04/04 00:38:01;;;;;;;1999.90;999.90;;;8.20;57.30;;;;;;5066682;28;20139;-71
2021/04/04 00:40:30;;;;;;;1999.90;999.90;;;8.10;57.30;;;;;;5068832;28;20048;-72
2021/04/04 00:42:57;;;;;;;1999.90;999.90;;;8.10;57.40;;;;;;5062654;28;20376;-72
2021/04/04 00:45:26;;;;;;;1999.90;999.90;;;8.10;57.50;;;;;;5064542;28;20048;-72
2021/04/04 00:47:53;;;;;;;;;;;8.10;57.20;;;;;;5065928;28;20051;-71
2021/04/04 00:50:23;;;;;;;1999.90;999.90;;;8.00;58.00;;;;;;5064603;28;19959;-72
2021/04/04 00:52:51;;;;;;;1999.90;999.90;;;8.00;57.20;;;;;;5067423;28;20403;-71
2021/04/04 00:55:18;;;;;;;1999.90;999.90;;;8.00;57.20;;;;;;5063493;28;20156;-71
2021/04/04 00:57:45;;;;;;;1999.90;999.90;;;8.00;57.30;;;;;;5068026;28;20055;-71
2021/04/04 01:00:14;;;;;;;1999.90;999.90;;;8.00;57.50;;;;;;5065953;28;20044;-72
2021/04/04 01:02:41;;;;;;;1999.90;999.90;;;8.00;57.50;;;;;;5061017;28;20372;-72
2021/04/04 01:05:15;;;;;;;1999.90;999.90;;;8.00;57.50;;;;;;5064863;28;20082;-71
2021/04/04 01:07:45;;;;;;;1999.90;999.90;;;8.00;57.50;;;;;;5067035;28;20040;-72
2021/04/04 01:10:13;;;;;;;1999.90;999.90;;;8.00;57.70;;;;;;5064361;28;20381;-71
2021/04/04 01:12:48;;;;;;;1999.90;999.90;;;8.00;57.70;;;;;;5060389;28;20144;-72
2021/04/04 01:15:18;;;;;;;1999.90;999.90;;;8.00;57.70;;;;;;5054937;28;20056;-72
2021/04/04 01:17:48;;;;;;;1999.90;999.90;;;8.00;57.70;;;;;;5055592;28;20056;-72
2021/04/04 01:20:47;;;;;;;1999.90;999.90;;;8.00;57.80;;;;;;5056660;28;20047;-71
2021/04/04 01:23:47;;;;;;;1999.90;999.90;;;8.00;57.90;;;;;;5055351;28;20124;-71
2021/04/04 01:26:26;;;;;;;1999.90;999.90;;;7.90;57.90;;;;;;5055080;28;20626;-72
2021/04/04 01:28:54;;;;;;;1999.90;999.90;;;7.90;58.10;;;;;;5055891;28;20478;-71
2021/04/04 01:31:21;;;;;;;1999.90;999.90;;;7.90;58.20;;;;;;5057706;28;20053;-71
2021/04/04 01:33:52;;;;;;;1999.90;999.90;;;7.90;58.10;;;;;;5060143;28;20048;-72
2021/04/04 01:36:19;;;;;;;1999.90;999.90;;;7.80;58.00;;;;;;5065559;28;20739;-71
2021/04/04 01:38:46;;;;;;;1999.90;999.90;;;7.80;58.30;;;;;;5066632;28;20162;-71
2021/04/04 01:41:32;;;;;;;1999.90;999.90;;;7.80;58.40;;;;;;5068655;28;20123;-72
2021/04/04 01:44:03;;;;;;;1999.90;999.90;;;7.80;58.40;;;;;;5060582;28;20052;-72
2021/04/04 01:46:31;;;;;;;1999.90;999.90;;;7.80;58.50;;;;;;5065399;28;20041;-72
2021/04/04 01:48:58;;;;;;;1999.90;999.90;;;7.80;58.30;;;;;;5063227;28;20036;-72
2021/04/04 01:51:26;;;;;;;1999.90;999.90;;;7.80;58.50;;;;;;5063351;28;20067;-71
2021/04/04 01:53:55;;;;;;;1999.90;999.90;;;7.80;58.30;;;;;;5092773;28;20051;-71
2021/04/04 01:56:22;;;;;;;1999.90;999.90;;;7.80;58.70;;;;;;5060637;28;20049;-72
2021/04/04 01:58:49;;;;;;;1999.90;999.90;;;7.70;59.00;;;;;;5063569;28;20044;-72
2021/04/04 02:01:17;;;;;;;1999.90;999.90;;;7.70;58.60;;;;;;5063105;28;20049;-71
2021/04/04 02:03:44;;;;;;;1999.90;999.90;;;7.70;58.80;;;;;;5083085;28;20067;-72
2021/04/04 02:06:12;;;;;;;1999.90;999.90;;;7.70;58.70;;;;;;5063659;28;20037;-72
2021/04/04 02:08:41;;;;;;;1999.90;999.90;;;7.70;58.50;;;;;;5064155;28;20040;-71
2021/04/04 02:11:10;;;;;;;1999.90;999.90;;;7.70;58.30;;;;;;5064483;28;20058;-72
2021/04/04 02:13:37;;;;;;;1999.90;999.90;;;7.70;58.30;;;;;;5061347;28;20049;-71
2021/04/04 02:16:07;;;;;;;1999.90;999.90;;;7.70;58.50;;;;;;5070159;28;20058;-71
2021/04/04 02:18:33;;;;;;;1999.90;999.90;;;7.70;58.40;;;;;;5067173;28;20054;-71
2021/04/04 02:21:01;;;;;;;1999.90;999.90;;;7.70;58.60;;;;;;5070061;28;20480;-72
2021/04/04 02:23:28;;;;;;;1999.90;999.90;;;7.70;58.80;;;;;;5070465;28;20537;-71
2021/04/04 02:25:56;;;;;;;1999.90;999.90;;;7.70;58.60;;;;;;5064064;28;20044;-71
2021/04/04 02:28:24;;;;;;;1999.90;999.90;;;7.70;58.50;;;;;;5066357;28;20037;-71
2021/04/04 02:30:52;;;;;;;1999.90;999.90;;;7.70;58.90;;;;;;5069904;28;20053;-71
2021/04/04 02:33:33;;;;;;;1999.90;999.90;;;7.60;58.50;;;;;;5067062;28;20033;-72
2021/04/04 02:36:07;;;;;;;1999.90;999.90;;;7.60;58.50;;;;;;5071145;28;20055;-71
2021/04/04 02:38:37;;;;;;;1999.90;999.90;;;7.60;58.60;;;;;;5068778;28;20131;-72
2021/04/04 02:41:07;;;;;;;1999.90;999.90;;;7.60;58.60;;;;;;5068058;28;20040;-72
2021/04/04 02:43:36;;;;;;;1999.90;999.90;;;7.60;58.60;;;;;;5067808;28;20049;-73
2021/04/04 02:46:08;;;;;;;1999.90;999.90;;;7.50;58.80;;;;;;5068454;28;20037;-71
2021/04/04 02:48:40;;;;;;;1999.90;999.90;;;7.50;58.70;;;;;;5069321;28;20036;-72
2021/04/04 02:51:09;;;;;;;1999.90;999.90;;;7.50;58.70;;;;;;5068224;28;20068;-71
2021/04/04 02:53:56;;;;;;;1999.90;999.90;;;7.50;58.70;;;;;;5067489;28;20170;-71
2021/04/04 02:56:23;;;;;;;1999.90;999.90;;;7.50;58.80;;;;;;5069645;28;20052;-71
2021/04/04 02:58:57;;;;;;;1999.90;999.90;;;7.50;59.00;;;;;;5068776;28;20540;-72
2021/04/04 03:01:32;;;;;;;1999.90;999.90;;;7.50;59.00;;;;;;5065974;28;20088;-72
2021/04/04 03:03:59;;;;;;;1999.90;999.90;;;7.50;59.00;;;;;;5069274;28;20048;-71
2021/04/04 03:06:27;;;;;;;1999.90;999.90;;;7.40;59.00;;;;;;5062932;28;20369;-71
2021/04/04 03:08:55;;;;;;;1999.90;999.90;;;7.40;59.20;;;;;;5068386;28;20052;-71
2021/04/04 03:11:22;;;;;;;1999.90;999.90;;;7.40;59.10;;;;;;5066761;28;20507;-71
2021/04/04 03:13:51;;;;;;;1999.90;999.90;;;7.30;59.10;;;;;;5067264;28;20070;-72
2021/04/04 03:16:19;;;;;;;1999.90;999.90;;;7.30;59.10;;;;;;5065283;28;20135;-71
2021/04/04 03:18:47;;;;;;;1999.90;999.90;;;7.30;59.10;;;;;;5067458;28;20499;-72
2021/04/04 03:21:16;;;;;;;1999.90;999.90;;;7.30;59.00;;;;;;5066679;28;20048;-72
2021/04/04 03:23:44;;;;;;;1999.90;999.90;;;7.30;59.10;;;;;;5061269;28;20135;-71
2021/04/04 03:26:12;;;;;;;1999.90;999.90;;;7.30;59.30;;;;;;5067614;28;20047;-71
2021/04/04 03:28:41;;;;;;;1999.90;999.90;;;7.30;59.20;;;;;;5064313;28;20047;-71
2021/04/04 03:31:07;;;;;;;1999.90;999.90;;;7.30;59.20;;;;;;5069535;28;20048;-72
2021/04/04 03:33:34;;;;;;;1999.90;999.90;;;7.30;59.10;;;;;;5068079;28;20089;-71
2021/04/04 03:36:00;;;;;;;1999.90;999.90;;;7.30;59.30;;;;;;5069941;28;20046;-71
2021/04/04 03:38:29;;;;;;;1999.90;999.90;;;7.30;59.80;;;;;;5068601;28;20067;-71
2021/04/04 03:40:57;;;;;;;1999.90;999.90;;;7.30;59.40;;;;;;5066889;28;20056;-71
2021/04/04 03:43:27;;;;;;;1999.90;999.90;;;7.30;59.10;;;;;;5067463;28;20102;-71
2021/04/04 03:45:57;;;;;;;1999.90;999.90;;;7.30;59.80;;;;;;5068213;28;20044;-72
2021/04/04 03:48:26;;;;;;;1999.90;999.90;;;7.30;59.30;;;;;;5068146;28;20045;-72
2021/04/04 03:50:53;;;;;;;;;;;7.30;59.40;;;;;;5064461;28;20068;-71
2021/04/04 03:53:21;;;;;;;1999.90;999.90;;;7.30;60.20;;;;;;5067099;28;19928;-71
2021/04/04 03:55:52;;;;;;;1999.90;999.90;;;7.30;59.70;;;;;;5066273;28;20049;-71
2021/04/04 03:58:20;;;;;;;1999.90;999.90;;;7.30;59.40;;;;;;5060969;28;20357;-71
2021/04/04 04:00:47;;;;;;;1999.90;999.90;;;7.30;59.50;;;;;;5068270;28;20109;-72
2021/04/04 04:03:16;;;;;;;1999.90;999.90;;;7.30;59.40;;;;;;5067247;28;20530;-71
2021/04/04 04:05:43;;;;;;;1999.90;999.90;;;7.30;59.30;;;;;;5069050;28;20125;-71
2021/04/04 04:08:10;;;;;;;1999.90;999.90;;;7.30;59.60;;;;;;5066696;28;20059;-71
2021/04/04 04:10:39;;;;;;;1999.90;999.90;;;7.30;59.70;;;;;;5066068;28;20418;-71
2021/04/04 04:13:06;;;;;;;1999.90;999.90;;;7.30;59.60;;;;;;5066514;28;20423;-71
2021/04/04 04:15:33;;;;;;;1999.90;999.90;;;7.30;59.70;;;;;;5064338;28;20056;-71
2021/04/04 04:18:00;;;;;;;1999.90;999.90;;;7.30;59.60;;;;;;5064997;28;20614;-71
2021/04/04 04:20:27;;;;;;;1999.90;999.90;;;7.30;59.50;;;;;;5067679;28;20131;-71
2021/04/04 04:22:57;;;;;;;1999.90;999.90;;;7.30;59.60;;;;;;5065210;28;20040;-71
2021/04/04 04:25:26;;;;;;;1999.90;999.90;;;7.30;59.60;;;;;;5061063;28;20053;-71
2021/04/04 04:27:53;;;;;;;1999.90;999.90;;;7.30;59.70;;;;;;5066301;28;20056;-71
2021/04/04 04:30:20;;;;;;;1999.90;999.90;;;7.30;59.60;;;;;;5060141;28;20078;-71
2021/04/04 04:32:51;;;;;;;1999.90;999.90;;;7.30;59.70;;;;;;5058550;28;20512;-71
2021/04/04 04:35:18;;;;;;;1999.90;999.90;;;7.30;59.80;;;;;;5054270;28;20046;-71
2021/04/04 04:37:45;;;;;;;1999.90;999.90;;;7.30;59.80;;;;;;5053748;28;20098;-72
2021/04/04 04:40:12;;;;;;;1999.90;999.90;;;7.30;59.70;;;;;;5049828;28;20828;-71
2021/04/04 04:42:42;;;;;;;1999.90;999.90;;;7.30;59.70;;;;;;5053595;28;20056;-71
2021/04/04 04:45:17;;;;;;;1999.90;999.90;;;7.30;59.90;;;;;;5048274;28;20058;-71
2021/04/04 04:47:43;;;;;;;1999.90;999.90;;;7.30;59.80;;;;;;5047278;28;20045;-71
2021/04/04 04:50:10;;;;;;;1999.90;999.90;;;7.20;59.80;;;;;;5045888;28;20539;-71
2021/04/04 04:52:37;;;;;;;1999.90;999.90;;;7.20;60.20;;;;;;5047621;28;20429;-71
2021/04/04 04:55:06;;;;;;;1999.90;999.90;;;7.20;60.20;;;;;;5057104;28;20086;-71
2021/04/04 04:57:32;;;;;;;1999.90;999.90;;;7.20;60.00;;;;;;5053691;28;20084;-71
2021/04/04 05:00:00;;;;;;;1999.90;999.90;;;7.20;60.10;;;;;;5053039;28;20072;-71
2021/04/04 05:02:27;;;;;;;1999.90;999.90;;;7.20;60.00;;;;;;5060948;28;20139;-71
2021/04/04 05:04:53;;;;;;;1999.90;999.90;;;7.20;60.00;;;;;;5064999;28;20497;-71
2021/04/04 05:07:20;;;;;;;1999.90;999.90;;;7.20;60.40;;;;;;5064889;28;20167;-71
2021/04/04 05:09:47;;;;;;;1999.90;999.90;;;7.20;60.20;;;;;;5065953;28;20051;-71
2021/04/04 05:12:24;;;;;;;1999.90;999.90;;;7.20;60.10;;;;;;5066690;28;20490;-72
2021/04/04 05:14:52;;;;;;;1999.90;999.90;;;7.20;60.10;;;;;;5059722;28;20350;-71
2021/04/04 05:17:18;;;;;;;1999.90;999.90;;;7.20;60.20;;;;;;5066956;28;20470;-72
2021/04/04 05:19:45;;;;;;;1999.90;999.90;;;7.20;60.40;;;;;;5066003;28;20131;-71
2021/04/04 05:22:13;;;;;;;1999.90;999.90;;;7.20;60.20;;;;;;5066065;28;20074;-71
2021/04/04 05:24:41;;;;;;;1999.90;999.90;;;7.20;60.20;;;;;;5065088;28;20051;-71
2021/04/04 05:27:07;;;;;;;1999.90;999.90;;;7.20;60.40;;;;;;5064323;28;20068;-71
2021/04/04 05:29:33;;;;;;;1999.90;999.90;;;7.20;60.30;;;;;;5066265;28;20488;-72
2021/04/04 05:32:01;;;;;;;1999.90;999.90;;;7.20;60.30;;;;;;5065874;28;20430;-71
2021/04/04 05:34:29;;;;;;;1999.90;999.90;;;7.20;60.50;;;;;;5065140;28;20072;-71
2021/04/04 05:37:06;;;;;;;1999.90;999.90;;;7.10;60.80;;;;;;5064999;28;20151;-71
2021/04/04 05:39:34;;;;;;;1999.90;999.90;;;7.10;60.60;;;;;;5066547;28;20067;-71
2021/04/04 05:42:07;;;;;;;1999.90;999.90;;;7.10;60.80;;;;;;5064430;28;20127;-71
2021/04/04 05:44:55;;;;;;;1999.90;999.90;;;7.10;60.70;;;;;;5065087;28;20479;-71
2021/04/04 05:47:49;;;;;;;1999.90;999.90;;;7.00;61.70;;;;;;5061280;28;20553;-71
2021/04/04 05:50:23;;;;;;;1999.90;999.90;;;7.00;61.40;;;;;;5064870;28;20053;-71
2021/04/04 05:53:15;;;;;;;1999.90;999.90;;;7.00;60.90;;;;;;5066654;28;20514;-71
2021/04/04 05:56:07;;;;;;;1999.90;999.90;;;7.00;60.80;;;;;;5068315;28;20059;-71
2021/04/04 05:58:40;;;;;;;1999.90;999.90;;;7.00;61.40;;;;;;5065480;28;20504;-71
2021/04/04 06:01:28;;;;;;;1999.90;999.90;;;7.00;61.20;;;;;;5065096;28;20127;-71
2021/04/04 06:04:28;;;;;;;1999.90;999.90;;;7.00;61.10;;;;;;5066451;28;20506;-71
2021/04/04 06:07:32;;;;;;;1999.90;999.90;;;7.00;61.30;;;;;;5067341;28;20052;-71
2021/04/04 06:10:07;;;;;;;1999.90;999.90;;;7.00;61.50;;;;;;5067065;28;20158;-71
2021/04/04 06:13:09;;;;;;;1999.90;999.90;;;7.00;61.60;;;;;;5067444;28;20487;-71
2021/04/04 06:16:03;;;;;;;1999.90;999.90;;;7.00;61.30;;;;;;5070491;28;20058;-71
2021/04/04 06:18:59;;;;;;;1999.90;999.90;;;7.00;61.70;;;;;;5094097;28;20053;-71
2021/04/04 06:21:59;;;;;;;1999.90;999.90;;;7.00;61.50;;;;;;5058459;28;20139;-71
2021/04/04 06:24:48;;;;;;;1999.90;999.90;;;7.00;61.80;;;;;;5066645;28;20053;-72
2021/04/04 06:27:38;;;;;;;1999.90;999.90;;;7.00;61.60;;;;;;5065382;28;20048;-72
2021/04/04 06:30:20;;;;;;;1999.90;999.90;;;7.00;61.70;;;;;;5066641;28;20040;-71
2021/04/04 06:33:10;;;;;;;1999.90;999.90;;;7.00;62.20;;;;;;5075636;28;20056;-71
2021/04/04 06:35:59;;;;;;;1999.90;999.90;;;7.00;62.00;;;;;;5065546;28;20131;-71
2021/04/04 06:38:47;;;;;;;1999.90;999.90;;;7.00;62.40;;;;;;5067553;28;20058;-71
2021/04/04 06:41:19;;;;;;;1999.90;999.90;;;7.00;62.10;;;;;;5069384;28;20076;-71
2021/04/04 06:44:04;;;;;;;1999.90;999.90;;;7.00;62.10;;;;;;5063336;28;20521;-71
2021/04/04 06:46:43;;;;;;;1999.90;999.90;;;7.10;62.10;;;;;;5068005;28;20135;-71
2021/04/04 06:49:21;;;;;;;1999.90;999.90;;;7.10;62.10;;;;;;5068226;28;20048;-71
2021/04/04 06:52:17;;;;;;;1999.90;999.90;;;7.10;62.30;;;;;;5064960;28;20091;-71
2021/04/04 06:54:57;;;;;;;1999.90;999.90;;;7.10;62.40;;;;;;5057558;28;20438;-71
2021/04/04 06:57:58;;;;;;;1999.90;999.90;;;7.10;62.10;;;;;;5067216;28;20519;-71
2021/04/04 07:01:01;;;;;;;1999.90;999.90;;;7.10;62.30;;;;;;5066711;28;20059;-71
2021/04/04 07:03:33;;;;;;;1999.90;999.90;;;7.10;62.20;;;;;;5066197;28;20610;-71
2021/04/04 07:06:17;;;;;;;1999.90;999.90;;;7.10;63.00;;;;;;5066601;28;20064;-71
2021/04/04 07:09:07;;;;;;;1999.90;999.90;;;7.10;62.90;;;;;;5064419;28;20053;-71
2021/04/04 07:11:41;;;;;;;1999.90;999.90;;;7.10;63.00;;;;;;5067783;28;20052;-71
2021/04/04 07:14:43;;;;;;;1999.90;999.90;;;7.10;62.90;;;;;;5064130;28;20056;-71
2021/04/04 07:17:45;;;;;;;1999.90;999.90;;;7.20;63.30;;;;;;5069434;28;20574;-71
2021/04/04 07:20:54;;;;;;;1999.90;999.90;;;7.20;63.30;;;;;;5045555;28;20050;-71
2021/04/04 07:23:43;;;;;;;1999.90;999.90;;;7.20;63.20;;;;;;5064653;28;20047;-71
2021/04/04 07:26:38;;;;;;;1999.90;999.90;;;7.20;63.40;;;;;;5068710;28;20041;-71
2021/04/04 07:29:12;;;;;;;1999.90;999.90;;;7.20;64.60;;;;;;5063246;28;20048;-71
2021/04/04 07:31:44;;;;;;;1999.90;999.90;;;7.20;63.80;;;;;;5067258;28;20494;-71
2021/04/04 07:34:19;;;;;;;1999.90;999.90;;;7.20;63.40;;;;;;5064752;28;20052;-71
2021/04/04 07:37:03;;;;;;;1999.90;999.90;;;7.20;63.70;;;;;;5067695;28;20048;-71
2021/04/04 07:39:45;;;;;;;1999.90;999.90;;;7.20;63.60;;;;;;5067146;28;20052;-71
2021/04/04 07:42:34;;;;;;;1999.90;999.90;;;7.20;63.80;;;;;;5065011;28;20037;-71
2021/04/04 07:45:23;;;;;;;1999.90;999.90;;;7.20;63.50;;;;;;5069980;28;20045;-71
2021/04/04 07:48:27;;;;;;;1999.90;999.90;;;7.20;63.00;;;;;;5064947;28;20037;-71
2021/04/04 07:50:59;;;;;;;1999.90;999.90;;;7.20;63.40;;;;;;5040889;28;20073;-72
2021/04/04 07:54:03;;;;;;;1999.90;999.90;;;7.20;64.20;;;;;;5061899;28;20128;-71
2021/04/04 07:56:39;;;;;;;1999.90;999.90;;;7.20;63.50;;;;;;5064669;28;20730;-71
2021/04/04 07:59:08;;;;;;;1999.90;999.90;;;7.20;63.20;;;;;;5061238;28;20411;-71
2021/04/04 08:01:42;;;;;;;1999.90;999.90;;;7.20;63.70;;;;;;5052408;28;20090;-71
2021/04/04 08:04:13;;;;;;;1999.90;999.90;;;7.20;63.90;;;;;;5063774;28;20048;-71
2021/04/04 08:06:53;;;;;;;1999.90;999.90;;;7.20;64.10;;;;;;5064907;28;20043;-71
2021/04/04 08:09:45;;;;;;;1999.90;999.90;;;7.30;65.00;;;;;;5064767;28;20059;-71
2021/04/04 08:12:25;;;;;;;1999.90;999.90;;;7.30;64.30;;;;;;5059894;28;20150;-71
2021/04/04 08:15:04;;;;;;;1999.90;999.90;;;7.30;63.90;;;;;;5068437;28;20049;-71
2021/04/04 08:17:32;;;;;;;1999.90;999.90;;;7.30;64.10;;;;;;5065965;28;20127;-71
2021/04/04 08:20:18;;;;;;;1999.90;999.90;;;7.30;64.30;;;;;;5066084;28;20054;-71
2021/04/04 08:22:50;;;;;;;1999.90;999.90;;;7.20;64.50;;;;;;5064600;28;20534;-71
2021/04/04 08:25:24;;;;;;;1999.90;999.90;;;7.20;64.70;;;;;;5065689;28;20125;-71
2021/04/04 08:27:58;;;;;;;1999.90;999.90;;;7.20;64.80;;;;;;5069449;28;20151;-71
2021/04/04 08:30:32;;;;;;;1999.90;999.90;;;7.20;64.20;;;;;;5067759;28;20518;-71
2021/04/04 08:33:01;;;;;;;1999.90;999.90;;;7.20;64.00;;;;;;5065555;28;20163;-71
2021/04/04 08:35:43;;;;;;;1999.90;999.90;;;7.30;64.40;;;;;;5067977;28;20048;-72
2021/04/04 08:38:18;;;;;;;1999.90;999.90;;;7.30;64.40;;;;;;5067014;28;20102;-71
2021/04/04 08:40:45;;;;;;;1999.90;999.90;;;7.30;64.60;;;;;;5066443;28;20060;-71
2021/04/04 08:43:14;;;;;;;1999.90;999.90;;;7.30;65.00;;;;;;5063198;28;20048;-71
2021/04/04 08:45:58;;;;;;;1999.90;999.90;;;7.30;64.60;;;;;;5065208;28;20053;-71
2021/04/04 08:48:26;;;;;;;1999.90;999.90;;;7.40;65.10;;;;;;5068058;28;20110;-71
2021/04/04 08:50:53;;;;;;;1999.90;999.90;;;7.40;65.40;;;;;;5066010;28;20128;-71
2021/04/04 08:53:37;;;;;;;1999.90;999.90;;;7.40;65.60;;;;;;5067594;28;20089;-71
2021/04/04 08:56:04;;;;;;;1999.90;999.90;;;7.40;65.40;;;;;;5067093;28;20113;-71
2021/04/04 08:58:38;;;;;;;1999.90;999.90;;;7.40;65.50;;;;;;5066713;28;20145;-71
2021/04/04 09:01:09;;;;;;;1999.90;999.90;;;7.50;65.00;;;;;;5067869;28;20506;-72
2021/04/04 09:03:38;;;;;;;1999.90;999.90;;;7.50;65.40;;;;;;5063835;28;20122;-71
2021/04/04 09:06:06;;;;;;;1999.90;999.90;;;7.50;65.20;;;;;;5065556;28;20048;-71
2021/04/04 09:08:39;;;;;;;1999.90;999.90;;;7.50;65.70;;;;;;5063791;28;20047;-71
2021/04/04 09:11:06;;;;;;;1999.90;999.90;;;7.50;66.00;;;;;;5066607;28;20539;-71
2021/04/04 09:13:34;;;;;;;1999.90;999.90;;;7.50;65.30;;;;;;5055711;28;20082;-71
2021/04/04 09:16:08;;;;;;;1999.90;999.90;;;7.60;65.50;;;;;;5057571;28;20412;-71
2021/04/04 09:18:50;;;;;;;1999.90;999.90;;;7.60;66.10;;;;;;5054935;28;20063;-71
2021/04/04 09:21:19;;;;;;;1999.90;999.90;;;7.60;65.50;;;;;;5058823;28;20132;-71
2021/04/04 09:23:46;;;;;;;;;;;7.60;65.40;;;;;;5083214;28;20053;-71
2021/04/04 09:26:17;;;;;;;1999.90;999.90;;;7.70;66.30;;;;;;5054743;28;19934;-71
2021/04/04 09:28:44;;;;;;;1999.90;999.90;;;7.70;65.30;;;;;;5055970;28;20055;-71
2021/04/04 09:31:22;;;;;;;1999.90;999.90;;;7.80;65.60;;;;;;5059613;28;20490;-71
2021/04/04 09:33:58;;;;;;;1999.90;999.90;;;7.80;66.10;;;;;;5063708;28;20131;-71
2021/04/04 09:36:37;;;;;;;1999.90;999.90;;;7.80;66.30;;;;;;5065056;28;20087;-71
2021/04/04 09:39:04;;;;;;;1999.90;999.90;;;7.80;65.90;;;;;;5064467;28;20135;-71
2021/04/04 09:41:31;;;;;;;1999.90;999.90;;;7.90;65.80;;;;;;5064622;28;20504;-71
2021/04/04 09:44:05;;;;;;;1999.90;999.90;;;7.90;65.80;;;;;;5060881;28;20163;-71
2021/04/04 09:46:31;;;;;;;1999.90;999.90;;;8.00;66.70;;;;;;5061356;28;20048;-71
2021/04/04 09:48:58;;;;;;;1999.90;999.90;;;8.00;66.20;;;;;;5065250;28;20131;-71
2021/04/04 09:51:24;;;;;;;1999.90;999.90;;;8.10;66.80;;;;;;5064870;28;20052;-71
2021/04/04 09:53:57;;;;;;;1999.90;999.90;;;8.10;66.90;;;;;;5064307;28;20149;-71
2021/04/04 09:56:31;;;;;;;1999.90;999.90;;;8.10;66.60;;;;;;5063248;28;20041;-71
2021/04/04 09:58:59;;;;;;;1999.90;999.90;;;8.20;66.60;;;;;;5064823;28;20045;-71
2021/04/04 10:01:28;;;;;;;1999.90;999.90;;;8.30;66.50;;;;;;5063102;28;20721;-71
2021/04/04 10:04:04;;;;;;;1999.90;999.90;;;8.40;66.60;;;;;;5062955;28;20458;-71
2021/04/04 10:06:33;;;;;;;1999.90;999.90;;;8.50;66.80;;;;;;5064111;28;20052;-71
2021/04/04 10:09:13;;;;;;;1999.90;999.90;;;8.50;66.80;;;;;;5055013;28;20500;-71
2021/04/04 10:11:39;;;;;;;1999.90;999.90;;;8.50;66.60;;;;;;5066004;28;20125;-71
2021/04/04 10:14:06;;;;;;;1999.90;999.90;;;8.60;67.00;;;;;;5062646;28;20053;-71
2021/04/04 10:16:33;;;;;;;1999.90;999.90;;;8.70;67.10;;;;;;5060567;28;20056;-71
2021/04/04 10:19:17;;;;;;;1999.90;999.90;;;8.80;67.20;;;;;;5064873;28;20055;-71
2021/04/04 10:22:04;;;;;;;1999.90;999.90;;;8.80;67.80;;;;;;5062161;28;20098;-71
2021/04/04 10:24:32;;;;;;;1999.90;999.90;;;8.80;67.10;;;;;;5062196;28;20063;-71
2021/04/04 10:27:25;;;;;;;1999.90;999.90;;;8.80;66.80;;;;;;5056908;28;20041;-71
2021/04/04 10:30:05;;;;;;;1999.90;999.90;;;8.80;67.10;;;;;;5062714;28;20045;-71
2021/04/04 10:32:32;;;;;;;1999.90;999.90;;;8.80;67.20;;;;;;5055770;28;20475;-71
2021/04/04 10:34:58;;;;;;;1999.90;999.90;;;8.80;67.10;;;;;;5063305;28;20045;-71
2021/04/04 10:37:28;;;;;;;1999.90;999.90;;;8.70;67.10;;;;;;5069982;28;20056;-71
2021/04/04 10:40:20;;;;;;;1999.90;999.90;;;8.70;66.80;;;;;;5069280;28;20088;-71
2021/04/04 10:42:56;;;;;;;1999.90;999.90;;;8.80;66.80;;;;;;5067278;28;20044;-71
2021/04/04 10:45:23;;;;;;;1999.90;999.90;;;8.90;67.10;;;;;;5069841;28;20495;-71
2021/04/04 10:47:49;;;;;;;1999.90;999.90;;;9.00;67.40;;;;;;5067181;28;20139;-71
2021/04/04 10:50:16;;;;;;;1999.90;999.90;;;9.10;67.60;;;;;;5066654;28;20072;-71
2021/04/04 10:52:45;;;;;;;1999.90;999.90;;;9.20;67.70;;;;;;5063008;28;20106;-71
2021/04/04 10:55:13;;;;;;;1999.90;999.90;;;9.20;67.60;;;;;;5070671;28;20070;-71
2021/04/04 10:57:39;;;;;;;1999.90;999.90;;;9.20;67.50;;;;;;5062691;28;20094;-71
2021/04/04 11:00:09;;;;;;;1999.90;999.90;;;9.30;67.40;;;;;;5067850;28;20048;-71
2021/04/04 11:02:37;;;;;;;1999.90;999.90;;;9.20;67.40;;;;;;5067740;28;20074;-72
2021/04/04 11:05:05;;;;;;;1999.90;999.90;;;9.10;67.10;;;;;;5065563;28;20049;-71
2021/04/04 11:07:32;;;;;;;1999.90;999.90;;;9.10;67.10;;;;;;5063001;28;20040;-71
2021/04/04 11:09:59;;;;;;;1999.90;999.90;;;9.10;67.60;;;;;;5068520;28;20037;-71
2021/04/04 11:12:37;;;;;;;1999.90;999.90;;;9.10;67.30;;;;;;5066968;28;20048;-71
2021/04/04 11:15:06;;;;;;;1999.90;999.90;;;9.10;67.40;;;;;;5063966;28;20052;-71
2021/04/04 11:17:34;;;;;;;1999.90;999.90;;;9.10;67.40;;;;;;5065549;28;20052;-71
2021/04/04 11:20:05;;;;;;;1999.90;999.90;;;9.10;67.30;;;;;;5065317;28;20048;-71
2021/04/04 11:22:32;;;;;;;1999.90;999.90;;;9.10;67.40;;;;;;5065821;28;20059;-71
2021/04/04 11:25:09;;;;;;;1999.90;999.90;;;9.10;67.30;;;;;;5062646;28;20045;-71
2021/04/04 11:27:37;;;;;;;1999.90;999.90;;;9.00;67.40;;;;;;5060111;28;20072;-71
2021/04/04 11:30:05;;;;;;;1999.90;999.90;;;9.10;67.60;;;;;;5065808;28;20040;-71
2021/04/04 11:32:31;;;;;;;1999.90;999.90;;;9.00;67.30;;;;;;5061326;28;20045;-71
2021/04/04 11:35:00;;;;;;;1999.90;999.90;;;9.00;67.30;;;;;;5067021;28;20140;-71
2021/04/04 11:37:29;;;;;;;1999.90;999.90;;;9.00;67.50;;;;;;5058613;28;20091;-71
2021/04/04 11:40:15;;;;;;;1999.90;999.90;;;9.00;67.50;;;;;;5063445;28;20143;-70
2021/04/04 11:42:43;;;;;;;1999.90;999.90;;;9.00;67.30;;;;;;5065338;28;20119;-71
2021/04/04 11:45:11;;;;;;;1999.90;999.90;;;9.10;67.30;;;;;;5065888;28;20151;-71
2021/04/04 11:47:39;;;;;;;1999.90;999.90;;;9.10;67.50;;;;;;5065855;28;20133;-71
2021/04/04 11:50:25;;;;;;;1999.90;999.90;;;9.20;67.60;;;;;;5062599;28;20670;-71
2021/04/04 11:52:51;;;;;;;1999.90;999.90;;;9.30;67.90;;;;;;5064679;28;20409;-71
2021/04/04 11:55:19;;;;;;;1999.90;999.90;;;9.30;67.70;;;;;;5064767;28;20044;-72
2021/04/04 11:57:47;;;;;;;1999.90;999.90;;;9.40;68.20;;;;;;5065664;28;20044;-71
2021/04/04 12:00:22;;;;;;;1999.90;999.90;;;9.40;68.30;;;;;;5058774;28;20048;-71
2021/04/04 12:03:03;;;;;;;1999.90;999.90;;;9.40;68.00;;;;;;5062084;28;20135;-71
2021/04/04 12:05:38;;;;;;;1999.90;999.90;;;9.40;68.80;;;;;;5057412;28;20102;-71
2021/04/04 12:08:06;;;;;;;1999.90;999.90;;;9.30;68.00;;;;;;5061613;28;20136;-71
2021/04/04 12:10:35;;;;;;;1999.90;999.90;;;9.30;67.70;;;;;;5062973;28;20127;-72
2021/04/04 12:13:02;;;;;;;1999.90;999.90;;;9.40;67.70;;;;;;5062638;28;20479;-71
2021/04/04 12:15:29;;;;;;;1999.90;999.90;;;9.40;67.80;;;;;;5064551;28;20511;-71
2021/04/04 12:17:58;;;;;;;1999.90;999.90;;;9.50;67.90;;;;;;5066243;28;20450;-70
2021/04/04 12:20:29;;;;;;;1999.90;999.90;;;9.60;68.30;;;;;;5064487;28;20060;-71
2021/04/04 12:22:55;;;;;;;1999.90;999.90;;;9.60;68.30;;;;;;5054516;28;20097;-71
2021/04/04 12:25:24;;;;;;;1999.90;999.90;;;9.60;68.30;;;;;;5056115;28;20101;-71
2021/04/04 12:27:53;;;;;;;1999.90;999.90;;;9.70;68.30;;;;;;5061466;28;20080;-70
2021/04/04 12:30:42;;;;;;;1999.90;999.90;;;9.70;68.50;;;;;;5057038;28;20048;-71
2021/04/04 12:33:12;;;;;;;1999.90;999.90;;;9.70;68.70;;;;;;5059106;28;20037;-71
2021/04/04 12:35:44;;;;;;;1999.90;999.90;;;9.80;68.90;;;;;;5062335;28;20140;-71
2021/04/04 12:38:28;;;;;;;1999.90;999.90;;;9.80;69.00;;;;;;5058495;28;20401;-71